sensor_id;sensor_type;location;lat;lon;timestamp;P1;durP1;ratioP1;P2;durP2;ratioP2
8755;SDS011;4414;42.670;23.228;2022-08-19T00:00:06;4.90;;;4.50;;
8755;SDS011;4414;42.670;23.228;2022-08-19T00:02:35;5.75;;;5.22;;
8755;SDS011;4414;42.670;23.228;2022-08-19T00:05:02;4.53;;;4.13;;
8755;SDS011;4414;42.670;23.228;2022-08-19T00:07:31;5.25;;;4.75;;
8755;SDS011;4414;42.670;23.228;2022-08-19T00:09:58;4.95;;;4.45;;
8755;SDS011;4414;42.670;23.228;2022-08-19T00:12:25;4.90;;;4.53;;
8755;SDS011;4414;42.670;23.228;2022-08-19T00:14:52;4.45;;;4.10;;
8755;SDS011;4414;42.670;23.228;2022-08-19T00:17:19;5.22;;;4.78;;
8755;SDS011;4414;42.670;23.228;2022-08-19T00:19:46;4.00;;;3.80;;
8755;SDS011;4414;42.670;23.228;2022-08-19T00:22:13;4.93;;;4.40;;
8755;SDS011;4414;42.670;23.228;2022-08-19T00:24:42;4.75;;;4.38;;
8755;SDS011;4414;42.670;23.228;2022-08-19T00:27:09;5.00;;;4.40;;
8755;SDS011;4414;42.670;23.228;2022-08-19T00:29:35;4.60;;;4.20;;
8755;SDS011;4414;42.670;23.228;2022-08-19T00:32:03;6.68;;;4.68;;
8755;SDS011;4414;42.670;23.228;2022-08-19T00:34:31;4.57;;;4.18;;
8755;SDS011;4414;42.670;23.228;2022-08-19T00:36:58;5.57;;;4.20;;
8755;SDS011;4414;42.670;23.228;2022-08-19T00:39:25;4.82;;;4.43;;
8755;SDS011;4414;42.670;23.228;2022-08-19T00:41:53;5.18;;;3.75;;
8755;SDS011;4414;42.670;23.228;2022-08-19T00:44:21;5.47;;;4.80;;
8755;SDS011;4414;42.670;23.228;2022-08-19T00:46:50;4.82;;;4.43;;
8755;SDS011;4414;42.670;23.228;2022-08-19T00:49:19;4.90;;;4.50;;
8755;SDS011;4414;42.670;23.228;2022-08-19T00:51:50;4.80;;;4.40;;
8755;SDS011;4414;42.670;23.228;2022-08-19T00:54:19;4.63;;;4.22;;
8755;SDS011;4414;42.670;23.228;2022-08-19T00:56:47;5.05;;;4.35;;
8755;SDS011;4414;42.670;23.228;2022-08-19T00:59:17;4.50;;;4.10;;
8755;SDS011;4414;42.670;23.228;2022-08-19T01:01:45;5.03;;;4.53;;
8755;SDS011;4414;42.670;23.228;2022-08-19T01:04:12;4.50;;;4.10;;
8755;SDS011;4414;42.670;23.228;2022-08-19T01:06:39;4.90;;;4.30;;
8755;SDS011;4414;42.670;23.228;2022-08-19T01:09:07;4.82;;;4.43;;
8755;SDS011;4414;42.670;23.228;2022-08-19T01:11:35;5.80;;;3.97;;
8755;SDS011;4414;42.670;23.228;2022-08-19T01:14:06;4.10;;;3.80;;
8755;SDS011;4414;42.670;23.228;2022-08-19T01:16:35;5.28;;;4.07;;
8755;SDS011;4414;42.670;23.228;2022-08-19T01:19:07;4.78;;;4.43;;
8755;SDS011;4414;42.670;23.228;2022-08-19T01:21:40;4.65;;;4.05;;
8755;SDS011;4414;42.670;23.228;2022-08-19T01:24:14;4.25;;;3.95;;
8755;SDS011;4414;42.670;23.228;2022-08-19T01:26:42;4.65;;;4.25;;
8755;SDS011;4414;42.670;23.228;2022-08-19T01:29:10;4.10;;;3.80;;
8755;SDS011;4414;42.670;23.228;2022-08-19T01:31:36;4.50;;;4.10;;
8755;SDS011;4414;42.670;23.228;2022-08-19T01:34:04;8.43;;;4.13;;
8755;SDS011;4414;42.670;23.228;2022-08-19T01:36:34;4.30;;;4.00;;
8755;SDS011;4414;42.670;23.228;2022-08-19T01:39:04;4.22;;;3.92;;
8755;SDS011;4414;42.670;23.228;2022-08-19T01:41:35;5.97;;;4.68;;
8755;SDS011;4414;42.670;23.228;2022-08-19T01:44:04;4.68;;;4.10;;
8755;SDS011;4414;42.670;23.228;2022-08-19T01:46:32;4.03;;;3.80;;
8755;SDS011;4414;42.670;23.228;2022-08-19T01:48:59;4.00;;;3.70;;
8755;SDS011;4414;42.670;23.228;2022-08-19T01:51:26;5.53;;;4.40;;
8755;SDS011;4414;42.670;23.228;2022-08-19T01:53:53;5.70;;;3.90;;
8755;SDS011;4414;42.670;23.228;2022-08-19T01:56:20;4.53;;;4.05;;
8755;SDS011;4414;42.670;23.228;2022-08-19T01:58:49;5.28;;;4.72;;
8755;SDS011;4414;42.670;23.228;2022-08-19T02:01:19;5.07;;;4.68;;
8755;SDS011;4414;42.670;23.228;2022-08-19T02:03:46;4.72;;;4.32;;
8755;SDS011;4414;42.670;23.228;2022-08-19T02:06:13;6.25;;;4.80;;
8755;SDS011;4414;42.670;23.228;2022-08-19T02:08:42;4.35;;;4.03;;
8755;SDS011;4414;42.670;23.228;2022-08-19T02:11:17;6.47;;;5.05;;
8755;SDS011;4414;42.670;23.228;2022-08-19T02:13:45;5.40;;;4.88;;
8755;SDS011;4414;42.670;23.228;2022-08-19T02:16:13;5.22;;;4.82;;
8755;SDS011;4414;42.670;23.228;2022-08-19T02:18:40;5.00;;;4.50;;
8755;SDS011;4414;42.670;23.228;2022-08-19T02:21:07;7.68;;;5.45;;
8755;SDS011;4414;42.670;23.228;2022-08-19T02:23:33;5.78;;;5.18;;
8755;SDS011;4414;42.670;23.228;2022-08-19T02:26:00;5.53;;;4.88;;
8755;SDS011;4414;42.670;23.228;2022-08-19T02:28:27;6.18;;;5.60;;
8755;SDS011;4414;42.670;23.228;2022-08-19T02:30:54;6.13;;;5.53;;
8755;SDS011;4414;42.670;23.228;2022-08-19T02:33:22;8.00;;;4.45;;
8755;SDS011;4414;42.670;23.228;2022-08-19T02:35:48;9.75;;;5.32;;
8755;SDS011;4414;42.670;23.228;2022-08-19T02:38:15;5.15;;;4.60;;
8755;SDS011;4414;42.670;23.228;2022-08-19T02:40:55;7.60;;;4.85;;
8755;SDS011;4414;42.670;23.228;2022-08-19T02:43:25;8.95;;;5.22;;
8755;SDS011;4414;42.670;23.228;2022-08-19T02:45:53;8.98;;;5.07;;
8755;SDS011;4414;42.670;23.228;2022-08-19T02:48:22;5.93;;;4.90;;
8755;SDS011;4414;42.670;23.228;2022-08-19T02:50:50;6.60;;;4.97;;
8755;SDS011;4414;42.670;23.228;2022-08-19T02:53:20;5.40;;;4.70;;
8755;SDS011;4414;42.670;23.228;2022-08-19T02:55:48;5.47;;;4.97;;
8755;SDS011;4414;42.670;23.228;2022-08-19T02:58:16;4.70;;;4.30;;
8755;SDS011;4414;42.670;23.228;2022-08-19T03:00:43;4.22;;;3.92;;
8755;SDS011;4414;42.670;23.228;2022-08-19T03:03:11;5.65;;;4.68;;
8755;SDS011;4414;42.670;23.228;2022-08-19T03:05:40;7.78;;;4.75;;
8755;SDS011;4414;42.670;23.228;2022-08-19T03:08:07;7.28;;;4.55;;
8755;SDS011;4414;42.670;23.228;2022-08-19T03:10:39;4.72;;;4.32;;
8755;SDS011;4414;42.670;23.228;2022-08-19T03:13:09;7.65;;;4.97;;
8755;SDS011;4414;42.670;23.228;2022-08-19T03:15:39;5.35;;;4.95;;
8755;SDS011;4414;42.670;23.228;2022-08-19T03:18:06;5.53;;;5.00;;
8755;SDS011;4414;42.670;23.228;2022-08-19T03:20:33;8.05;;;5.55;;
8755;SDS011;4414;42.670;23.228;2022-08-19T03:23:01;6.07;;;5.57;;
8755;SDS011;4414;42.670;23.228;2022-08-19T03:25:28;6.35;;;5.75;;
8755;SDS011;4414;42.670;23.228;2022-08-19T03:27:55;5.75;;;4.55;;
8755;SDS011;4414;42.670;23.228;2022-08-19T03:30:21;6.93;;;5.90;;
8755;SDS011;4414;42.670;23.228;2022-08-19T03:32:48;7.97;;;5.05;;
8755;SDS011;4414;42.670;23.228;2022-08-19T03:35:15;5.47;;;4.97;;
8755;SDS011;4414;42.670;23.228;2022-08-19T03:37:42;7.30;;;5.22;;
8755;SDS011;4414;42.670;23.228;2022-08-19T03:40:10;5.78;;;5.20;;
8755;SDS011;4414;42.670;23.228;2022-08-19T03:42:37;5.35;;;4.95;;
8755;SDS011;4414;42.670;23.228;2022-08-19T03:45:07;5.22;;;4.82;;
8755;SDS011;4414;42.670;23.228;2022-08-19T03:47:35;5.43;;;4.93;;
8755;SDS011;4414;42.670;23.228;2022-08-19T03:50:03;5.57;;;4.50;;
8755;SDS011;4414;42.670;23.228;2022-08-19T03:52:30;5.60;;;4.97;;
8755;SDS011;4414;42.670;23.228;2022-08-19T03:54:57;5.15;;;4.65;;
8755;SDS011;4414;42.670;23.228;2022-08-19T03:57:25;5.53;;;4.28;;
8755;SDS011;4414;42.670;23.228;2022-08-19T03:59:51;5.30;;;4.90;;
8755;SDS011;4414;42.670;23.228;2022-08-19T04:02:18;5.22;;;4.65;;
8755;SDS011;4414;42.670;23.228;2022-08-19T04:04:45;5.38;;;4.88;;
8755;SDS011;4414;42.670;23.228;2022-08-19T04:07:12;4.95;;;4.55;;
8755;SDS011;4414;42.670;23.228;2022-08-19T04:09:41;5.03;;;4.72;;
8755;SDS011;4414;42.670;23.228;2022-08-19T04:12:08;5.68;;;5.13;;
8755;SDS011;4414;42.670;23.228;2022-08-19T04:14:36;6.63;;;5.13;;
8755;SDS011;4414;42.670;23.228;2022-08-19T04:17:03;5.88;;;4.53;;
8755;SDS011;4414;42.670;23.228;2022-08-19T04:19:31;10.85;;;4.90;;
8755;SDS011;4414;42.670;23.228;2022-08-19T04:21:58;5.63;;;5.03;;
8755;SDS011;4414;42.670;23.228;2022-08-19T04:24:25;5.63;;;5.10;;
8755;SDS011;4414;42.670;23.228;2022-08-19T04:26:52;5.65;;;4.68;;
8755;SDS011;4414;42.670;23.228;2022-08-19T04:29:20;6.32;;;4.70;;
8755;SDS011;4414;42.670;23.228;2022-08-19T04:31:51;5.47;;;4.88;;
8755;SDS011;4414;42.670;23.228;2022-08-19T04:34:20;6.18;;;4.80;;
8755;SDS011;4414;42.670;23.228;2022-08-19T04:36:48;6.95;;;5.28;;
8755;SDS011;4414;42.670;23.228;2022-08-19T04:39:17;7.50;;;5.35;;
8755;SDS011;4414;42.670;23.228;2022-08-19T04:41:46;11.35;;;5.30;;
8755;SDS011;4414;42.670;23.228;2022-08-19T04:44:41;7.00;;;5.18;;
8755;SDS011;4414;42.670;23.228;2022-08-19T04:47:09;6.75;;;6.07;;
8755;SDS011;4414;42.670;23.228;2022-08-19T04:49:36;9.45;;;6.85;;
8755;SDS011;4414;42.670;23.228;2022-08-19T04:52:03;8.48;;;6.88;;
8755;SDS011;4414;42.670;23.228;2022-08-19T04:54:30;6.65;;;6.05;;
8755;SDS011;4414;42.670;23.228;2022-08-19T04:56:57;9.27;;;6.35;;
8755;SDS011;4414;42.670;23.228;2022-08-19T04:59:23;9.88;;;6.75;;
8755;SDS011;4414;42.670;23.228;2022-08-19T05:01:50;6.65;;;5.95;;
8755;SDS011;4414;42.670;23.228;2022-08-19T05:04:19;6.60;;;5.53;;
8755;SDS011;4414;42.670;23.228;2022-08-19T05:06:46;10.63;;;6.28;;
8755;SDS011;4414;42.670;23.228;2022-08-19T05:09:14;7.00;;;6.38;;
8755;SDS011;4414;42.670;23.228;2022-08-19T05:11:42;6.18;;;5.68;;
8755;SDS011;4414;42.670;23.228;2022-08-19T05:14:10;9.27;;;5.53;;
8755;SDS011;4414;42.670;23.228;2022-08-19T05:16:38;5.65;;;5.13;;
8755;SDS011;4414;42.670;23.228;2022-08-19T05:19:05;7.05;;;5.80;;
8755;SDS011;4414;42.670;23.228;2022-08-19T05:21:51;8.63;;;5.80;;
8755;SDS011;4414;42.670;23.228;2022-08-19T05:24:36;6.30;;;5.70;;
8755;SDS011;4414;42.670;23.228;2022-08-19T05:27:03;6.78;;;5.60;;
8755;SDS011;4414;42.670;23.228;2022-08-19T05:29:31;8.93;;;5.38;;
8755;SDS011;4414;42.670;23.228;2022-08-19T05:31:59;6.30;;;5.35;;
8755;SDS011;4414;42.670;23.228;2022-08-19T05:34:27;6.15;;;5.57;;
8755;SDS011;4414;42.670;23.228;2022-08-19T05:36:57;5.70;;;5.20;;
8755;SDS011;4414;42.670;23.228;2022-08-19T05:39:25;6.90;;;5.13;;
8755;SDS011;4414;42.670;23.228;2022-08-19T05:41:54;11.02;;;6.03;;
8755;SDS011;4414;42.670;23.228;2022-08-19T05:44:22;8.43;;;6.10;;
8755;SDS011;4414;42.670;23.228;2022-08-19T05:46:50;8.93;;;6.38;;
8755;SDS011;4414;42.670;23.228;2022-08-19T05:49:19;14.63;;;7.72;;
8755;SDS011;4414;42.670;23.228;2022-08-19T05:51:47;19.77;;;10.80;;
8755;SDS011;4414;42.670;23.228;2022-08-19T05:54:16;10.13;;;6.78;;
8755;SDS011;4414;42.670;23.228;2022-08-19T05:56:43;9.73;;;6.70;;
8755;SDS011;4414;42.670;23.228;2022-08-19T05:59:12;17.52;;;11.55;;
8755;SDS011;4414;42.670;23.228;2022-08-19T06:01:41;7.80;;;7.00;;
8755;SDS011;4414;42.670;23.228;2022-08-19T06:04:09;7.72;;;6.75;;
8755;SDS011;4414;42.670;23.228;2022-08-19T06:06:36;14.77;;;10.40;;
8755;SDS011;4414;42.670;23.228;2022-08-19T06:09:04;15.48;;;9.43;;
8755;SDS011;4414;42.670;23.228;2022-08-19T06:11:34;11.40;;;8.02;;
8755;SDS011;4414;42.670;23.228;2022-08-19T06:14:04;9.02;;;6.45;;
8755;SDS011;4414;42.670;23.228;2022-08-19T06:16:34;9.63;;;6.30;;
8755;SDS011;4414;42.670;23.228;2022-08-19T06:19:02;9.40;;;7.05;;
8755;SDS011;4414;42.670;23.228;2022-08-19T06:21:31;9.23;;;6.57;;
8755;SDS011;4414;42.670;23.228;2022-08-19T06:23:59;14.07;;;7.70;;
8755;SDS011;4414;42.670;23.228;2022-08-19T06:26:26;11.98;;;7.70;;
8755;SDS011;4414;42.670;23.228;2022-08-19T06:28:54;7.82;;;6.57;;
8755;SDS011;4414;42.670;23.228;2022-08-19T06:31:22;10.82;;;7.20;;
8755;SDS011;4414;42.670;23.228;2022-08-19T06:33:51;11.52;;;7.50;;
8755;SDS011;4414;42.670;23.228;2022-08-19T06:36:19;13.30;;;7.35;;
8755;SDS011;4414;42.670;23.228;2022-08-19T06:38:52;10.38;;;7.45;;
8755;SDS011;4414;42.670;23.228;2022-08-19T06:41:19;9.93;;;8.05;;
8755;SDS011;4414;42.670;23.228;2022-08-19T06:43:46;13.40;;;8.45;;
8755;SDS011;4414;42.670;23.228;2022-08-19T06:46:15;12.63;;;8.40;;
8755;SDS011;4414;42.670;23.228;2022-08-19T06:48:43;17.58;;;8.05;;
8755;SDS011;4414;42.670;23.228;2022-08-19T06:51:10;9.95;;;7.80;;
8755;SDS011;4414;42.670;23.228;2022-08-19T06:53:40;10.27;;;8.27;;
8755;SDS011;4414;42.670;23.228;2022-08-19T06:56:12;16.73;;;8.27;;
8755;SDS011;4414;42.670;23.228;2022-08-19T06:58:40;15.75;;;8.10;;
8755;SDS011;4414;42.670;23.228;2022-08-19T07:01:07;9.65;;;7.57;;
8755;SDS011;4414;42.670;23.228;2022-08-19T07:03:36;10.63;;;8.07;;
8755;SDS011;4414;42.670;23.228;2022-08-19T07:06:05;12.32;;;8.73;;
8755;SDS011;4414;42.670;23.228;2022-08-19T07:08:35;13.32;;;7.55;;
8755;SDS011;4414;42.670;23.228;2022-08-19T07:11:05;15.07;;;7.78;;
8755;SDS011;4414;42.670;23.228;2022-08-19T07:13:33;9.75;;;7.20;;
8755;SDS011;4414;42.670;23.228;2022-08-19T07:16:02;12.45;;;8.25;;
8755;SDS011;4414;42.670;23.228;2022-08-19T07:18:30;13.80;;;8.32;;
8755;SDS011;4414;42.670;23.228;2022-08-19T07:21:03;10.88;;;8.73;;
8755;SDS011;4414;42.670;23.228;2022-08-19T07:23:31;14.55;;;8.45;;
8755;SDS011;4414;42.670;23.228;2022-08-19T07:25:58;9.80;;;8.60;;
8755;SDS011;4414;42.670;23.228;2022-08-19T07:28:31;12.75;;;8.77;;
8755;SDS011;4414;42.670;23.228;2022-08-19T07:30:57;15.15;;;8.60;;
8755;SDS011;4414;42.670;23.228;2022-08-19T07:33:26;10.55;;;8.07;;
8755;SDS011;4414;42.670;23.228;2022-08-19T07:35:55;8.65;;;7.50;;
8755;SDS011;4414;42.670;23.228;2022-08-19T07:38:23;10.48;;;8.40;;
8755;SDS011;4414;42.670;23.228;2022-08-19T07:40:50;14.25;;;8.80;;
8755;SDS011;4414;42.670;23.228;2022-08-19T07:43:17;10.45;;;8.18;;
8755;SDS011;4414;42.670;23.228;2022-08-19T07:45:50;10.98;;;8.43;;
8755;SDS011;4414;42.670;23.228;2022-08-19T07:48:17;17.25;;;8.68;;
8755;SDS011;4414;42.670;23.228;2022-08-19T07:50:44;10.85;;;7.82;;
8755;SDS011;4414;42.670;23.228;2022-08-19T07:53:11;11.82;;;8.35;;
8755;SDS011;4414;42.670;23.228;2022-08-19T07:55:39;14.45;;;8.65;;
8755;SDS011;4414;42.670;23.228;2022-08-19T07:58:06;11.85;;;8.35;;
8755;SDS011;4414;42.670;23.228;2022-08-19T08:00:33;11.15;;;7.53;;
8755;SDS011;4414;42.670;23.228;2022-08-19T08:03:00;10.35;;;7.43;;
8755;SDS011;4414;42.670;23.228;2022-08-19T08:05:27;14.60;;;8.23;;
8755;SDS011;4414;42.670;23.228;2022-08-19T08:08:11;10.93;;;7.95;;
8755;SDS011;4414;42.670;23.228;2022-08-19T08:10:57;12.07;;;7.60;;
8755;SDS011;4414;42.670;23.228;2022-08-19T08:13:24;14.32;;;7.78;;
8755;SDS011;4414;42.670;23.228;2022-08-19T08:15:52;9.07;;;7.70;;
8755;SDS011;4414;42.670;23.228;2022-08-19T08:18:19;10.45;;;7.20;;
8755;SDS011;4414;42.670;23.228;2022-08-19T08:20:46;13.65;;;6.85;;
8755;SDS011;4414;42.670;23.228;2022-08-19T08:23:13;10.85;;;6.93;;
8755;SDS011;4414;42.670;23.228;2022-08-19T08:25:50;11.52;;;7.13;;
8755;SDS011;4414;42.670;23.228;2022-08-19T08:28:19;8.02;;;6.25;;
8755;SDS011;4414;42.670;23.228;2022-08-19T08:30:46;8.77;;;6.10;;
8755;SDS011;4414;42.670;23.228;2022-08-19T08:33:14;6.22;;;5.70;;
8755;SDS011;4414;42.670;23.228;2022-08-19T08:35:43;9.38;;;6.85;;
8755;SDS011;4414;42.670;23.228;2022-08-19T08:38:10;6.22;;;5.47;;
8755;SDS011;4414;42.670;23.228;2022-08-19T08:40:38;7.85;;;5.68;;
8755;SDS011;4414;42.670;23.228;2022-08-19T08:43:13;6.80;;;6.20;;
8755;SDS011;4414;42.670;23.228;2022-08-19T08:45:50;6.85;;;5.65;;
8755;SDS011;4414;42.670;23.228;2022-08-19T08:48:24;8.48;;;5.80;;
8755;SDS011;4414;42.670;23.228;2022-08-19T08:51:03;6.93;;;5.60;;
8755;SDS011;4414;42.670;23.228;2022-08-19T08:53:34;7.82;;;5.15;;
8755;SDS011;4414;42.670;23.228;2022-08-19T08:56:02;5.55;;;5.03;;
8755;SDS011;4414;42.670;23.228;2022-08-19T08:58:33;5.28;;;4.78;;
8755;SDS011;4414;42.670;23.228;2022-08-19T09:01:08;4.90;;;4.22;;
8755;SDS011;4414;42.670;23.228;2022-08-19T09:03:36;8.10;;;4.47;;
8755;SDS011;4414;42.670;23.228;2022-08-19T09:06:06;4.88;;;4.47;;
8755;SDS011;4414;42.670;23.228;2022-08-19T09:08:39;5.53;;;4.50;;
8755;SDS011;4414;42.670;23.228;2022-08-19T09:11:13;5.20;;;4.80;;
8755;SDS011;4414;42.670;23.228;2022-08-19T09:13:49;5.50;;;5.03;;
8755;SDS011;4414;42.670;23.228;2022-08-19T09:16:22;8.73;;;4.43;;
8755;SDS011;4414;42.670;23.228;2022-08-19T09:18:54;4.90;;;4.40;;
8755;SDS011;4414;42.670;23.228;2022-08-19T09:21:24;4.70;;;4.18;;
8755;SDS011;4414;42.670;23.228;2022-08-19T09:23:52;4.10;;;3.80;;
8755;SDS011;4414;42.670;23.228;2022-08-19T09:26:20;5.55;;;3.67;;
8755;SDS011;4414;42.670;23.228;2022-08-19T09:28:50;4.40;;;4.00;;
8755;SDS011;4414;42.670;23.228;2022-08-19T09:31:20;4.85;;;4.03;;
8755;SDS011;4414;42.670;23.228;2022-08-19T09:33:48;5.72;;;3.50;;
8755;SDS011;4414;42.670;23.228;2022-08-19T09:36:16;4.15;;;3.85;;
8755;SDS011;4414;42.670;23.228;2022-08-19T09:38:44;4.15;;;3.80;;
8755;SDS011;4414;42.670;23.228;2022-08-19T09:41:12;4.60;;;4.15;;
8755;SDS011;4414;42.670;23.228;2022-08-19T09:43:41;4.00;;;3.70;;
8755;SDS011;4414;42.670;23.228;2022-08-19T09:46:11;4.47;;;4.05;;
8755;SDS011;4414;42.670;23.228;2022-08-19T09:48:39;4.28;;;3.83;;
8755;SDS011;4414;42.670;23.228;2022-08-19T09:51:08;4.05;;;3.83;;
8755;SDS011;4414;42.670;23.228;2022-08-19T09:53:36;4.32;;;3.92;;
8755;SDS011;4414;42.670;23.228;2022-08-19T09:56:04;4.57;;;4.15;;
8755;SDS011;4414;42.670;23.228;2022-08-19T09:58:32;5.13;;;3.88;;
8755;SDS011;4414;42.670;23.228;2022-08-19T10:01:00;4.70;;;4.30;;
8755;SDS011;4414;42.670;23.228;2022-08-19T10:03:29;4.07;;;3.67;;
8755;SDS011;4414;42.670;23.228;2022-08-19T10:05:58;4.25;;;3.95;;
8755;SDS011;4414;42.670;23.228;2022-08-19T10:08:28;4.68;;;4.00;;
8755;SDS011;4414;42.670;23.228;2022-08-19T10:10:56;3.80;;;3.60;;
8755;SDS011;4414;42.670;23.228;2022-08-19T10:13:25;6.80;;;3.67;;
8755;SDS011;4414;42.670;23.228;2022-08-19T10:15:54;4.65;;;2.97;;
8755;SDS011;4414;42.670;23.228;2022-08-19T10:18:24;3.50;;;3.28;;
8755;SDS011;4414;42.670;23.228;2022-08-19T10:21:01;4.20;;;3.90;;
8755;SDS011;4414;42.670;23.228;2022-08-19T10:23:32;6.03;;;4.53;;
8755;SDS011;4414;42.670;23.228;2022-08-19T10:25:59;5.88;;;3.83;;
8755;SDS011;4414;42.670;23.228;2022-08-19T10:28:26;4.47;;;4.07;;
8755;SDS011;4414;42.670;23.228;2022-08-19T10:30:53;4.30;;;4.00;;
8755;SDS011;4414;42.670;23.228;2022-08-19T10:33:19;5.05;;;4.03;;
8755;SDS011;4414;42.670;23.228;2022-08-19T10:35:46;6.38;;;4.78;;
8755;SDS011;4414;42.670;23.228;2022-08-19T10:38:15;5.40;;;4.90;;
8755;SDS011;4414;42.670;23.228;2022-08-19T10:40:42;5.03;;;4.53;;
8755;SDS011;4414;42.670;23.228;2022-08-19T10:43:08;6.18;;;5.05;;
8755;SDS011;4414;42.670;23.228;2022-08-19T10:45:36;8.27;;;4.78;;
8755;SDS011;4414;42.670;23.228;2022-08-19T10:48:03;5.03;;;4.45;;
8755;SDS011;4414;42.670;23.228;2022-08-19T10:50:30;4.55;;;4.15;;
8755;SDS011;4414;42.670;23.228;2022-08-19T10:53:15;4.63;;;4.32;;
8755;SDS011;4414;42.670;23.228;2022-08-19T10:55:44;6.05;;;4.45;;
8755;SDS011;4414;42.670;23.228;2022-08-19T10:58:28;4.57;;;4.28;;
8755;SDS011;4414;42.670;23.228;2022-08-19T11:00:55;5.75;;;4.65;;
8755;SDS011;4414;42.670;23.228;2022-08-19T11:03:24;5.45;;;4.82;;
8755;SDS011;4414;42.670;23.228;2022-08-19T11:05:58;6.78;;;5.07;;
8755;SDS011;4414;42.670;23.228;2022-08-19T11:08:27;5.88;;;4.57;;
8755;SDS011;4414;42.670;23.228;2022-08-19T11:10:57;6.18;;;5.00;;
8755;SDS011;4414;42.670;23.228;2022-08-19T11:13:28;5.13;;;4.28;;
8755;SDS011;4414;42.670;23.228;2022-08-19T11:15:56;5.15;;;4.50;;
8755;SDS011;4414;42.670;23.228;2022-08-19T11:18:24;4.95;;;4.50;;
8755;SDS011;4414;42.670;23.228;2022-08-19T11:20:51;5.07;;;4.68;;
8755;SDS011;4414;42.670;23.228;2022-08-19T11:23:17;4.30;;;4.10;;
8755;SDS011;4414;42.670;23.228;2022-08-19T11:25:46;8.05;;;4.82;;
8755;SDS011;4414;42.670;23.228;2022-08-19T11:28:12;6.38;;;4.72;;
8755;SDS011;4414;42.670;23.228;2022-08-19T11:30:39;4.72;;;4.32;;
8755;SDS011;4414;42.670;23.228;2022-08-19T11:33:06;4.72;;;4.10;;
8755;SDS011;4414;42.670;23.228;2022-08-19T11:35:38;8.60;;;5.70;;
8755;SDS011;4414;42.670;23.228;2022-08-19T11:38:05;5.70;;;4.47;;
8755;SDS011;4414;42.670;23.228;2022-08-19T11:40:32;4.97;;;4.57;;
8755;SDS011;4414;42.670;23.228;2022-08-19T11:43:00;5.05;;;4.50;;
8755;SDS011;4414;42.670;23.228;2022-08-19T11:45:27;6.38;;;4.88;;
8755;SDS011;4414;42.670;23.228;2022-08-19T11:47:55;4.70;;;4.40;;
8755;SDS011;4414;42.670;23.228;2022-08-19T11:50:22;4.72;;;4.32;;
8755;SDS011;4414;42.670;23.228;2022-08-19T11:52:49;5.03;;;4.63;;
8755;SDS011;4414;42.670;23.228;2022-08-19T11:55:16;7.95;;;4.30;;
8755;SDS011;4414;42.670;23.228;2022-08-19T11:57:44;5.97;;;4.38;;
8755;SDS011;4414;42.670;23.228;2022-08-19T12:00:13;4.70;;;4.30;;
8755;SDS011;4414;42.670;23.228;2022-08-19T12:02:41;5.07;;;4.20;;
8755;SDS011;4414;42.670;23.228;2022-08-19T12:05:07;9.85;;;4.32;;
8755;SDS011;4414;42.670;23.228;2022-08-19T12:07:35;4.60;;;4.20;;
8755;SDS011;4414;42.670;23.228;2022-08-19T12:10:02;5.63;;;4.72;;
8755;SDS011;4414;42.670;23.228;2022-08-19T12:12:29;5.72;;;4.63;;
8755;SDS011;4414;42.670;23.228;2022-08-19T12:14:56;5.10;;;4.70;;
8755;SDS011;4414;42.670;23.228;2022-08-19T12:17:25;5.53;;;4.72;;
8755;SDS011;4414;42.670;23.228;2022-08-19T12:19:53;4.45;;;4.15;;
8755;SDS011;4414;42.670;23.228;2022-08-19T12:22:20;5.03;;;4.63;;
8755;SDS011;4414;42.670;23.228;2022-08-19T12:24:47;5.10;;;4.60;;
8755;SDS011;4414;42.670;23.228;2022-08-19T12:27:17;5.10;;;4.60;;
8755;SDS011;4414;42.670;23.228;2022-08-19T12:29:44;4.50;;;4.20;;
8755;SDS011;4414;42.670;23.228;2022-08-19T12:32:11;5.05;;;4.75;;
8755;SDS011;4414;42.670;23.228;2022-08-19T12:34:39;4.57;;;4.18;;
8755;SDS011;4414;42.670;23.228;2022-08-19T12:37:06;6.30;;;5.03;;
8755;SDS011;4414;42.670;23.228;2022-08-19T12:39:34;6.85;;;4.80;;
8755;SDS011;4414;42.670;23.228;2022-08-19T12:42:02;5.47;;;4.97;;
8755;SDS011;4414;42.670;23.228;2022-08-19T12:44:29;6.00;;;4.80;;
8755;SDS011;4414;42.670;23.228;2022-08-19T12:46:57;4.75;;;4.35;;
8755;SDS011;4414;42.670;23.228;2022-08-19T12:49:24;5.35;;;4.85;;
8755;SDS011;4414;42.670;23.228;2022-08-19T12:51:52;5.13;;;4.57;;
8755;SDS011;4414;42.670;23.228;2022-08-19T12:54:19;6.80;;;5.35;;
8755;SDS011;4414;42.670;23.228;2022-08-19T12:56:46;5.25;;;4.50;;
8755;SDS011;4414;42.670;23.228;2022-08-19T12:59:13;4.75;;;4.35;;
8755;SDS011;4414;42.670;23.228;2022-08-19T13:01:41;5.00;;;4.60;;
8755;SDS011;4414;42.670;23.228;2022-08-19T13:04:09;5.70;;;4.50;;
8755;SDS011;4414;42.670;23.228;2022-08-19T13:06:36;5.50;;;4.55;;
8755;SDS011;4414;42.670;23.228;2022-08-19T13:09:04;5.57;;;5.07;;
8755;SDS011;4414;42.670;23.228;2022-08-19T13:11:31;5.13;;;4.55;;
8755;SDS011;4414;42.670;23.228;2022-08-19T13:13:59;6.45;;;5.35;;
8755;SDS011;4414;42.670;23.228;2022-08-19T13:16:26;7.88;;;4.95;;
8755;SDS011;4414;42.670;23.228;2022-08-19T13:18:54;7.28;;;4.43;;
8755;SDS011;4414;42.670;23.228;2022-08-19T13:21:23;4.55;;;4.15;;
8755;SDS011;4414;42.670;23.228;2022-08-19T13:23:52;5.00;;;4.60;;
8755;SDS011;4414;42.670;23.228;2022-08-19T13:26:21;5.03;;;4.03;;
8755;SDS011;4414;42.670;23.228;2022-08-19T13:28:48;4.70;;;4.40;;
8755;SDS011;4414;42.670;23.228;2022-08-19T13:31:33;4.30;;;3.90;;
8755;SDS011;4414;42.670;23.228;2022-08-19T13:34:19;8.27;;;4.10;;
8755;SDS011;4414;42.670;23.228;2022-08-19T13:36:53;4.22;;;3.92;;
8755;SDS011;4414;42.670;23.228;2022-08-19T13:39:20;5.35;;;4.60;;
8755;SDS011;4414;42.670;23.228;2022-08-19T13:41:49;5.05;;;4.47;;
8755;SDS011;4414;42.670;23.228;2022-08-19T13:44:16;4.88;;;4.53;;
8755;SDS011;4414;42.670;23.228;2022-08-19T13:46:44;4.18;;;3.83;;
8755;SDS011;4414;42.670;23.228;2022-08-19T13:49:11;8.77;;;4.25;;
8755;SDS011;4414;42.670;23.228;2022-08-19T13:51:40;6.88;;;4.05;;
8755;SDS011;4414;42.670;23.228;2022-08-19T13:54:07;10.10;;;4.20;;
8755;SDS011;4414;42.670;23.228;2022-08-19T13:56:35;4.55;;;4.22;;
8755;SDS011;4414;42.670;23.228;2022-08-19T13:59:07;4.80;;;4.10;;
8755;SDS011;4414;42.670;23.228;2022-08-19T14:01:33;4.88;;;4.32;;
8755;SDS011;4414;42.670;23.228;2022-08-19T14:04:02;7.22;;;4.70;;
8755;SDS011;4414;42.670;23.228;2022-08-19T14:06:29;6.03;;;4.47;;
8755;SDS011;4414;42.670;23.228;2022-08-19T14:08:55;4.93;;;4.53;;
8755;SDS011;4414;42.670;23.228;2022-08-19T14:11:22;9.90;;;4.57;;
8755;SDS011;4414;42.670;23.228;2022-08-19T14:13:49;5.45;;;4.28;;
8755;SDS011;4414;42.670;23.228;2022-08-19T14:16:17;4.90;;;4.47;;
8755;SDS011;4414;42.670;23.228;2022-08-19T14:18:44;4.82;;;4.43;;
8755;SDS011;4414;42.670;23.228;2022-08-19T14:21:14;5.60;;;4.57;;
8755;SDS011;4414;42.670;23.228;2022-08-19T14:23:42;5.15;;;4.65;;
8755;SDS011;4414;42.670;23.228;2022-08-19T14:26:10;7.70;;;4.60;;
8755;SDS011;4414;42.670;23.228;2022-08-19T14:28:38;5.20;;;4.47;;
8755;SDS011;4414;42.670;23.228;2022-08-19T14:31:06;6.93;;;4.72;;
8755;SDS011;4414;42.670;23.228;2022-08-19T14:33:35;12.32;;;5.20;;
8755;SDS011;4414;42.670;23.228;2022-08-19T14:36:01;10.30;;;5.38;;
8755;SDS011;4414;42.670;23.228;2022-08-19T14:38:29;5.35;;;4.93;;
8755;SDS011;4414;42.670;23.228;2022-08-19T14:41:05;5.35;;;4.95;;
8755;SDS011;4414;42.670;23.228;2022-08-19T14:43:32;5.30;;;4.85;;
8755;SDS011;4414;42.670;23.228;2022-08-19T14:45:59;5.07;;;4.63;;
8755;SDS011;4414;42.670;23.228;2022-08-19T14:48:26;5.43;;;4.88;;
8755;SDS011;4414;42.670;23.228;2022-08-19T14:50:54;5.90;;;4.90;;
8755;SDS011;4414;42.670;23.228;2022-08-19T14:53:21;10.32;;;5.75;;
8755;SDS011;4414;42.670;23.228;2022-08-19T14:55:48;5.97;;;4.63;;
8755;SDS011;4414;42.670;23.228;2022-08-19T14:58:15;5.20;;;4.72;;
8755;SDS011;4414;42.670;23.228;2022-08-19T15:00:42;7.80;;;4.93;;
8755;SDS011;4414;42.670;23.228;2022-08-19T15:03:09;4.95;;;4.65;;
8755;SDS011;4414;42.670;23.228;2022-08-19T15:05:38;9.75;;;4.95;;
8755;SDS011;4414;42.670;23.228;2022-08-19T15:08:06;5.13;;;4.70;;